createdAt,value
2022-11-20T00:02:36.420Z,9.10
2022-11-20T00:05:40.456Z,10.60
2022-11-20T00:08:43.863Z,9.00
2022-11-20T00:11:46.537Z,10.53
2022-11-20T00:14:49.131Z,12.37
2022-11-20T00:17:52.101Z,13.10
2022-11-20T00:21:01.890Z,11.43
2022-11-20T00:24:04.876Z,14.17
2022-11-20T00:27:07.492Z,15.03
2022-11-20T00:30:13.702Z,13.37
2022-11-20T00:33:17.593Z,14.87
2022-11-20T00:36:23.145Z,18.60
2022-11-20T00:39:25.769Z,15.67
2022-11-20T00:42:28.414Z,12.73
2022-11-20T00:45:31.041Z,10.83
2022-11-20T00:48:33.890Z,12.90
2022-11-20T00:51:37.832Z,8.07
2022-11-20T00:54:40.481Z,9.27
2022-11-20T00:57:43.107Z,8.00
2022-11-20T01:00:45.763Z,11.27
2022-11-20T01:03:51.636Z,9.37
2022-11-20T01:06:55.627Z,7.40
2022-11-20T01:09:58.278Z,15.40
2022-11-20T01:13:14.774Z,6.60
2022-11-20T01:16:19.400Z,7.93
2022-11-20T01:19:25.403Z,9.10
2022-11-20T01:22:29.530Z,10.73
2022-11-20T01:25:32.282Z,5.87
2022-11-20T01:28:35.595Z,10.37
2022-11-20T01:31:39.400Z,8.00
2022-11-20T01:34:42.029Z,8.43
2022-11-20T01:37:46.020Z,10.50
2022-11-20T01:40:56.170Z,7.07
2022-11-20T01:43:57.828Z,10.73
2022-11-20T01:47:04.408Z,8.33
2022-11-20T01:50:14.965Z,8.93
2022-11-20T01:53:22.538Z,9.53
2022-11-20T01:56:27.194Z,8.67
2022-11-20T01:59:31.234Z,7.87
2022-11-20T02:02:34.516Z,7.77
2022-11-20T02:05:43.030Z,7.90
2022-11-20T02:08:47.015Z,8.77
2022-11-20T02:11:49.742Z,5.33
2022-11-20T02:14:51.425Z,7.57
2022-11-20T02:17:55.127Z,12.83
2022-11-20T02:21:03.876Z,6.60
2022-11-20T02:24:11.204Z,6.70
2022-11-20T02:27:16.029Z,7.03
2022-11-20T02:30:19.407Z,6.37
2022-11-20T02:33:22.027Z,7.93
2022-11-20T02:36:28.045Z,8.70
2022-11-20T02:39:32.027Z,6.47
2022-11-20T02:42:34.638Z,8.33
2022-11-20T02:45:37.458Z,7.87
2022-11-20T02:48:40.086Z,6.40
2022-11-20T02:51:42.683Z,5.60
2022-11-20T02:54:46.818Z,7.20
2022-11-20T02:57:49.486Z,8.13
2022-11-20T03:00:52.191Z,7.37
2022-11-20T03:03:55.716Z,9.57
2022-11-20T03:06:58.449Z,7.07
2022-11-20T03:10:02.503Z,5.90
2022-11-20T03:13:05.099Z,6.80
2022-11-20T03:16:09.857Z,7.70
2022-11-20T03:19:13.246Z,8.67
2022-11-20T03:22:15.895Z,10.30
2022-11-20T03:25:19.928Z,6.50
2022-11-20T03:28:22.579Z,6.33
2022-11-20T03:31:27.650Z,7.97
2022-11-20T03:34:30.294Z,7.23
2022-11-20T03:37:33.726Z,5.47
2022-11-20T03:40:37.769Z,5.33
2022-11-20T03:43:41.075Z,7.37
2022-11-20T03:46:43.702Z,7.80
2022-11-20T03:49:46.329Z,7.10
2022-11-20T03:52:48.972Z,7.63
2022-11-20T03:55:54.128Z,5.97
2022-11-20T03:58:57.040Z,11.27
2022-11-20T04:01:59.691Z,9.87
2022-11-20T04:05:02.394Z,7.27
2022-11-20T04:08:05.294Z,9.53
2022-11-20T04:11:14.062Z,7.27
2022-11-20T04:14:17.597Z,8.70
2022-11-20T04:17:20.249Z,6.17
2022-11-20T04:20:22.928Z,7.83
2022-11-20T04:23:28.695Z,6.47
2022-11-20T04:26:33.153Z,9.50
2022-11-20T04:29:35.794Z,6.60
2022-11-20T04:32:38.431Z,6.60
2022-11-20T04:35:41.122Z,5.93
2022-11-20T04:38:43.754Z,6.80
2022-11-20T04:41:47.738Z,6.17
2022-11-20T04:44:50.362Z,7.83
2022-11-20T04:47:53.021Z,7.70
2022-11-20T04:50:56.087Z,5.70
2022-11-20T04:53:59.007Z,6.17
2022-11-20T04:57:02.986Z,6.23
2022-11-20T05:00:06.747Z,5.03
2022-11-20T05:03:09.430Z,5.77
2022-11-20T05:06:13.714Z,8.63
2022-11-20T05:09:16.385Z,5.70
2022-11-20T05:12:20.336Z,4.40
2022-11-20T05:15:22.970Z,6.00
2022-11-20T05:18:25.779Z,5.67
2022-11-20T05:21:28.487Z,9.40
2022-11-20T05:24:31.119Z,5.13
2022-11-20T05:27:35.162Z,5.60
2022-11-20T05:30:37.765Z,6.97
2022-11-20T05:33:42.350Z,8.57
2022-11-20T05:36:44.943Z,7.13
2022-11-20T05:39:47.555Z,5.60
2022-11-20T05:42:51.541Z,5.07
2022-11-20T05:45:55.011Z,6.50
2022-11-20T05:48:58.237Z,6.30
2022-11-20T05:52:00.933Z,8.73
2022-11-20T05:55:03.663Z,7.43
2022-11-20T05:58:07.618Z,6.27
2022-11-20T06:01:12.889Z,9.73
2022-11-20T06:04:15.531Z,6.50
2022-11-20T06:07:18.161Z,7.87
2022-11-20T06:10:20.828Z,6.67
2022-11-20T06:13:25.135Z,5.93
2022-11-20T06:16:27.753Z,7.10
2022-11-20T06:19:30.390Z,7.83
2022-11-20T06:22:34.390Z,9.60
2022-11-20T06:25:39.627Z,7.00
2022-11-20T06:28:43.693Z,9.27
2022-11-20T06:31:46.286Z,9.57
2022-11-20T06:34:48.906Z,6.90
2022-11-20T06:37:51.564Z,8.03
2022-11-20T06:40:54.431Z,7.60
2022-11-20T06:43:58.505Z,6.50
2022-11-20T06:47:01.948Z,9.87
2022-11-20T06:50:05.152Z,9.00
2022-11-20T06:53:07.764Z,6.13
2022-11-20T06:56:10.577Z,8.03
2022-11-20T06:59:14.702Z,7.00
2022-11-20T07:02:17.434Z,8.67
2022-11-20T07:05:20.020Z,8.87
2022-11-20T07:08:22.622Z,8.77
2022-11-20T07:11:25.740Z,9.00
2022-11-20T07:14:29.778Z,7.33
2022-11-20T07:17:32.379Z,9.37
2022-11-20T07:20:35.051Z,8.20
2022-11-20T07:23:37.996Z,7.83
2022-11-20T07:26:40.674Z,8.67
2022-11-20T07:29:44.649Z,7.87
2022-11-20T07:32:49.065Z,9.23
2022-11-20T07:35:51.697Z,9.07
2022-11-20T07:38:55.273Z,6.93
2022-11-20T07:41:57.893Z,7.97
2022-11-20T07:45:01.855Z,9.73
2022-11-20T07:48:04.781Z,14.13
2022-11-20T07:51:14.348Z,10.33
2022-11-20T07:54:17.165Z,10.97
2022-11-20T07:57:22.127Z,14.70
2022-11-20T08:00:29.171Z,12.63
2022-11-20T08:03:31.914Z,11.20
2022-11-20T08:06:34.898Z,12.30
2022-11-20T08:09:37.537Z,13.70
2022-11-20T08:13:03.652Z,12.83
2022-11-20T08:16:08.000Z,9.17
2022-11-20T08:19:10.847Z,10.93
2022-11-20T08:22:13.481Z,9.33
2022-11-20T08:25:16.258Z,9.97
2022-11-20T08:28:21.576Z,10.00
2022-11-20T08:31:27.724Z,9.27
2022-11-20T08:34:30.408Z,11.37
2022-11-20T08:37:33.015Z,12.13
2022-11-20T08:40:35.723Z,14.80
2022-11-20T08:43:38.343Z,11.87
2022-11-20T08:46:44.437Z,11.67
2022-11-20T08:49:47.063Z,12.63
2022-11-20T08:52:49.705Z,10.87
2022-11-20T08:55:52.338Z,12.93
2022-11-20T08:59:20.155Z,10.63
2022-11-20T09:02:18.891Z,11.40
2022-11-20T09:05:21.511Z,10.10
2022-11-20T09:08:24.128Z,8.97
2022-11-20T09:11:26.890Z,9.67
2022-11-20T09:14:30.964Z,8.00
2022-11-20T09:17:34.931Z,10.80
2022-11-20T09:20:37.746Z,7.07
2022-11-20T09:23:41.663Z,7.00
2022-11-20T09:26:44.277Z,6.73
2022-11-20T09:29:46.889Z,7.07
2022-11-20T09:32:50.915Z,7.30
2022-11-20T09:35:53.553Z,7.17
2022-11-20T09:38:57.265Z,5.43
2022-11-20T09:42:27.496Z,6.20
2022-11-20T09:45:52.354Z,6.17
2022-11-20T09:49:07.647Z,3.97
2022-11-20T09:52:23.054Z,3.83
2022-11-20T09:55:26.509Z,4.03
2022-11-20T09:58:33.491Z,5.23
2022-11-20T10:01:39.175Z,6.67
2022-11-20T10:04:49.734Z,4.53
2022-11-20T10:07:57.288Z,4.93
2022-11-20T10:11:10.174Z,3.53
2022-11-20T10:14:22.815Z,4.80
2022-11-20T10:17:43.455Z,4.97
2022-11-20T10:20:51.892Z,4.50
2022-11-20T10:24:14.768Z,3.60
2022-11-20T10:27:58.006Z,3.97
2022-11-20T10:31:04.699Z,4.23
2022-11-20T10:34:19.367Z,4.13
2022-11-20T10:37:28.842Z,4.23
2022-11-20T10:40:38.122Z,3.90
2022-11-20T10:43:41.866Z,5.87
2022-11-20T10:46:46.832Z,5.97
2022-11-20T10:49:55.032Z,4.43
2022-11-20T10:53:24.653Z,5.60
2022-11-20T10:56:35.986Z,4.70
2022-11-20T10:59:54.921Z,5.17
2022-11-20T11:03:03.293Z,4.60
2022-11-20T11:06:11.373Z,4.53
2022-11-20T11:09:22.049Z,3.33
2022-11-20T11:12:27.192Z,5.47
2022-11-20T11:15:31.708Z,3.80
2022-11-20T11:18:36.342Z,5.17
2022-11-20T11:21:44.246Z,4.57
2022-11-20T11:24:55.470Z,6.60
2022-11-20T11:28:00.116Z,4.97
2022-11-20T11:31:02.756Z,4.23
2022-11-20T11:34:07.392Z,4.40
2022-11-20T11:37:18.430Z,3.77
2022-11-20T11:40:25.281Z,5.97
2022-11-20T11:43:48.669Z,5.30
2022-11-20T11:46:55.755Z,5.37
2022-11-20T11:50:17.591Z,5.53
2022-11-20T11:53:22.521Z,3.03
2022-11-20T11:56:27.126Z,4.30
2022-11-20T11:59:43.794Z,3.93
2022-11-20T12:02:58.508Z,3.20
2022-11-20T12:06:07.439Z,3.67
2022-11-20T12:09:12.904Z,3.10
2022-11-20T12:12:21.967Z,5.87
2022-11-20T12:15:30.734Z,3.53
2022-11-20T12:18:33.728Z,4.93
2022-11-20T12:21:49.822Z,4.07
2022-11-20T12:25:00.887Z,3.00
2022-11-20T12:28:25.701Z,3.90
2022-11-20T12:31:45.436Z,4.30
2022-11-20T12:35:00.069Z,3.33
2022-11-20T12:38:21.117Z,2.80
2022-11-20T12:41:59.174Z,3.57
2022-11-20T12:45:16.726Z,2.90
2022-11-20T12:48:46.399Z,4.53
2022-11-20T12:52:19.391Z,3.13
2022-11-20T12:55:47.886Z,3.87
2022-11-20T12:59:00.810Z,4.10
2022-11-20T13:02:20.977Z,3.10
2022-11-20T13:05:30.645Z,3.00
2022-11-20T13:08:37.240Z,4.27
2022-11-20T13:11:45.957Z,3.93
2022-11-20T13:14:56.325Z,2.70
2022-11-20T13:18:02.277Z,3.50
2022-11-20T13:21:16.025Z,4.27
2022-11-20T13:24:25.369Z,3.20
2022-11-20T13:27:31.862Z,4.00
2022-11-20T13:30:36.917Z,7.30
2022-11-20T13:33:41.437Z,4.40
2022-11-20T13:36:52.613Z,3.40
2022-11-20T13:39:55.363Z,2.90
2022-11-20T13:43:04.104Z,3.30
2022-11-20T13:46:09.254Z,5.17
2022-11-20T13:49:26.402Z,4.83
2022-11-20T13:52:44.489Z,7.17
2022-11-20T13:55:53.154Z,3.33
2022-11-20T13:59:05.416Z,3.33
2022-11-20T14:02:13.852Z,3.90
2022-11-20T14:05:23.437Z,5.53
2022-11-20T14:08:33.190Z,5.53
2022-11-20T14:11:36.089Z,14.57
2022-11-20T14:14:50.953Z,4.23
2022-11-20T14:17:53.712Z,3.50
2022-11-20T14:20:57.811Z,4.37
2022-11-20T14:24:08.228Z,4.07
2022-11-20T14:27:15.586Z,6.27
2022-11-20T14:30:21.150Z,9.10
2022-11-20T14:33:26.363Z,5.47
2022-11-20T14:36:30.544Z,6.10
2022-11-20T14:39:36.529Z,4.57
2022-11-20T14:42:39.193Z,12.13
2022-11-20T14:45:42.079Z,10.33
2022-11-20T14:48:48.764Z,5.07
2022-11-20T14:52:02.236Z,6.03
2022-11-20T14:55:05.512Z,5.90
2022-11-20T14:58:22.593Z,5.90
2022-11-20T15:01:28.609Z,5.63
2022-11-20T15:04:31.434Z,5.63
2022-11-20T15:07:37.307Z,5.90
2022-11-20T15:10:40.933Z,4.57
2022-11-20T15:13:43.714Z,7.93
2022-11-20T15:16:46.721Z,8.43
2022-11-20T15:19:49.427Z,9.27
2022-11-20T15:22:53.525Z,7.03
2022-11-20T15:25:56.940Z,7.07
2022-11-20T15:28:59.838Z,5.17
2022-11-20T15:32:02.620Z,5.20
2022-11-20T15:35:06.043Z,4.43
2022-11-20T15:38:10.221Z,6.35
2022-11-20T15:41:12.921Z,5.40
2022-11-20T15:44:15.749Z,7.33
2022-11-20T15:47:19.430Z,6.93
2022-11-20T15:50:22.857Z,6.80
2022-11-20T15:53:27.152Z,8.40
2022-11-20T15:56:30.273Z,6.63
2022-11-20T15:59:33.043Z,10.13
2022-11-20T16:02:35.865Z,6.23
2022-11-20T16:05:38.837Z,8.53
2022-11-20T16:08:43.208Z,12.53
2022-11-20T16:11:45.911Z,12.00
2022-11-20T16:15:10.789Z,10.43
2022-11-20T16:18:19.353Z,8.77
2022-11-20T16:21:22.117Z,9.03
2022-11-20T16:24:26.473Z,8.50
2022-11-20T16:27:29.246Z,9.23
2022-11-20T16:30:33.008Z,10.27
2022-11-20T16:33:35.627Z,8.50
2022-11-20T16:36:41.825Z,7.47
2022-11-20T16:39:45.901Z,8.30
2022-11-20T16:42:48.643Z,9.07
2022-11-20T16:45:51.274Z,14.50
2022-11-20T16:48:58.233Z,14.63
2022-11-20T16:52:01.164Z,9.83
2022-11-20T16:55:06.131Z,9.20
2022-11-20T16:58:09.265Z,9.43
2022-11-20T17:01:14.581Z,9.70
2022-11-20T17:04:18.429Z,9.77
2022-11-20T17:07:21.144Z,15.17
2022-11-20T17:10:25.182Z,16.93
2022-11-20T17:13:27.899Z,16.13
2022-11-20T17:16:31.391Z,13.03
2022-11-20T17:19:34.048Z,10.77
2022-11-20T17:22:36.665Z,11.40
2022-11-20T17:25:40.673Z,11.40
2022-11-20T17:28:43.509Z,14.43
2022-11-20T17:31:47.389Z,11.90
2022-11-20T17:34:50.023Z,11.83
2022-11-20T17:37:52.665Z,14.70
2022-11-20T17:41:03.081Z,13.53
2022-11-20T17:44:06.005Z,15.00
2022-11-20T17:47:08.671Z,10.90
2022-11-20T17:50:11.436Z,9.27
2022-11-20T17:53:14.090Z,13.67
2022-11-20T17:56:35.633Z,13.60
2022-11-20T17:59:39.264Z,17.40
2022-11-20T18:02:41.876Z,16.67
2022-11-20T18:05:44.503Z,27.60
2022-11-20T18:08:48.043Z,27.07
2022-11-20T18:11:52.067Z,18.73
2022-11-20T18:14:54.702Z,17.80
2022-11-20T18:17:57.345Z,18.40
2022-11-20T18:21:00.334Z,22.13
2022-11-20T18:24:03.131Z,26.67
2022-11-20T18:27:08.569Z,25.07
2022-11-20T18:30:12.938Z,37.13
2022-11-20T18:33:15.581Z,33.80
2022-11-20T18:36:20.076Z,26.77
2022-11-20T18:39:23.550Z,21.40
2022-11-20T18:42:45.307Z,17.60
2022-11-20T18:45:47.951Z,19.87
2022-11-20T18:48:50.531Z,13.20
2022-11-20T18:51:53.161Z,15.20
2022-11-20T18:54:56.308Z,13.97
2022-11-20T18:58:00.281Z,19.90
2022-11-20T19:01:07.025Z,17.83
2022-11-20T19:04:11.004Z,15.83
2022-11-20T19:07:13.984Z,16.37
2022-11-20T19:10:20.064Z,18.10
2022-11-20T19:13:24.029Z,24.20
2022-11-20T19:16:26.657Z,23.67
2022-11-20T19:19:29.325Z,26.63
2022-11-20T19:22:31.948Z,24.50
2022-11-20T19:25:38.073Z,21.17
2022-11-20T19:28:42.418Z,20.90
2022-11-20T19:31:45.114Z,20.60
2022-11-20T19:34:47.713Z,21.83
2022-11-20T19:37:50.331Z,22.33
2022-11-20T19:40:52.982Z,20.77
2022-11-20T19:43:58.304Z,21.40
2022-11-20T19:47:03.013Z,25.07
2022-11-20T19:50:06.318Z,22.30
2022-11-20T19:53:11.241Z,34.10
2022-11-20T19:56:13.993Z,27.37
2022-11-20T19:59:18.284Z,24.77
2022-11-20T20:02:20.917Z,27.43
2022-11-20T20:05:23.805Z,23.77
2022-11-20T20:08:26.392Z,26.00
2022-11-20T20:11:31.337Z,24.40
2022-11-20T20:14:35.585Z,23.87
2022-11-20T20:17:38.236Z,24.13
2022-11-20T20:20:40.864Z,23.07
2022-11-20T20:23:44.071Z,20.73
2022-11-20T20:26:46.692Z,23.17
2022-11-20T20:29:50.656Z,24.13
2022-11-20T20:32:56.298Z,27.30
2022-11-20T20:35:59.782Z,24.77
2022-11-20T20:39:03.270Z,26.27
2022-11-20T20:42:06.250Z,25.73
2022-11-20T20:45:11.865Z,24.23
2022-11-20T20:48:14.793Z,24.67
2022-11-20T20:51:17.552Z,25.10
2022-11-20T20:54:20.251Z,22.37
2022-11-20T20:57:23.701Z,23.40
2022-11-20T21:00:27.640Z,25.93
2022-11-20T21:03:33.010Z,37.30
2022-11-20T21:06:35.827Z,35.63
2022-11-20T21:09:38.549Z,33.90
2022-11-20T21:12:41.182Z,33.87
2022-11-20T21:15:47.722Z,35.30
2022-11-20T21:18:50.322Z,32.63
2022-11-20T21:22:03.121Z,30.63
2022-11-20T21:25:06.347Z,37.53
2022-11-20T21:28:13.087Z,38.37
2022-11-20T21:31:21.917Z,37.17
2022-11-20T21:34:26.372Z,30.33
2022-11-20T21:37:29.164Z,33.30
2022-11-20T21:40:31.824Z,30.97
2022-11-20T21:43:34.619Z,29.47
2022-11-20T21:46:40.651Z,31.27
2022-11-20T21:49:43.296Z,27.83
2022-11-20T21:52:45.958Z,31.13
2022-11-20T21:55:54.696Z,32.50
2022-11-20T21:58:58.118Z,30.40
2022-11-20T22:02:02.217Z,29.13
2022-11-20T22:05:05.220Z,32.43
2022-11-20T22:08:07.893Z,31.43
2022-11-20T22:11:13.124Z,33.00
2022-11-20T22:14:21.734Z,29.23
2022-11-20T22:17:39.903Z,30.43
2022-11-20T22:20:42.705Z,31.37
2022-11-20T22:23:45.427Z,27.80
2022-11-20T22:26:48.444Z,31.20
2022-11-20T22:29:51.067Z,28.53
2022-11-20T22:32:56.289Z,30.13
2022-11-20T22:36:02.652Z,32.90
2022-11-20T22:39:05.831Z,30.37
2022-11-20T22:42:08.448Z,33.77
2022-11-20T22:45:11.890Z,32.43
2022-11-20T22:48:15.901Z,32.30
2022-11-20T22:51:20.729Z,31.23
2022-11-20T22:54:23.600Z,37.17
2022-11-20T22:57:26.321Z,36.77
2022-11-20T23:00:28.985Z,36.00
2022-11-20T23:03:32.961Z,32.27
2022-11-20T23:06:35.794Z,33.17
2022-11-20T23:09:38.414Z,32.63
2022-11-20T23:12:41.046Z,32.33
2022-11-20T23:15:43.670Z,31.40
2022-11-20T23:18:47.733Z,28.93
2022-11-20T23:21:50.371Z,26.37
2022-11-20T23:24:52.977Z,24.07
2022-11-20T23:27:55.616Z,25.83
2022-11-20T23:30:58.502Z,26.13
2022-11-20T23:34:02.581Z,25.87
2022-11-20T23:37:05.184Z,28.40
2022-11-20T23:40:09.265Z,27.40
2022-11-20T23:43:18.172Z,26.03
2022-11-20T23:46:20.824Z,30.20
2022-11-20T23:49:24.833Z,33.10
2022-11-20T23:52:27.462Z,29.17
2022-11-20T23:55:30.324Z,32.47
2022-11-20T23:58:34.918Z,34.13
